Time;durP1;ratioP1;P1;durP2;ratioP2;P2;SDS_P1;SDS_P2;PMS_P1;PMS_P2;Temp;Humidity;BMP_temperature;BMP_pressure;BME280_temperature;BME280_humidity;BME280_pressure;Samples;Min_cycle;Max_cycle;Signal;HPM_P1;HPM_P2
2022/03/06 00:00:21;;;;;;;24.57;15.87;;;;;;;2.39;100.00;94351.59;5048048;28;20198;-76
2022/03/06 00:02:49;;;;;;;24.17;16.23;;;;;;;2.38;100.00;94351.78;5048539;28;20194;-76
2022/03/06 00:05:18;;;;;;;22.30;14.73;;;;;;;2.47;100.00;94354.09;5046924;28;20255;-77
2022/03/06 00:07:46;;;;;;;21.97;14.80;;;;;;;2.59;100.00;94355.25;5046739;28;20206;-77
2022/03/06 00:10:13;;;;;;;22.13;13.83;;;;;;;2.61;100.00;94360.97;5045364;28;20605;-76
2022/03/06 00:12:41;;;;;;;24.23;14.50;;;;;;;2.45;100.00;94339.84;5046556;28;20222;-76
2022/03/06 00:15:10;;;;;;;22.07;14.10;;;;;;;2.42;100.00;94350.47;5044932;28;20549;-76
2022/03/06 00:17:40;;;;;;;20.93;14.30;;;;;;;2.29;100.00;94341.59;5046474;28;20219;-76
2022/03/06 00:20:11;;;;;;;23.33;14.63;;;;;;;2.34;100.00;94348.75;5047028;28;20634;-76
2022/03/06 00:22:39;;;;;;;22.60;14.67;;;;;;;2.31;100.00;94338.84;5049002;28;20209;-78
2022/03/06 00:25:08;;;;;;;19.07;13.37;;;;;;;2.28;100.00;94347.69;5049537;28;20207;-76
2022/03/06 00:27:37;;;;;;;19.33;13.77;;;;;;;2.39;100.00;94345.69;5048450;28;20198;-76
2022/03/06 00:30:07;;;;;;;20.73;13.60;;;;;;;2.47;100.00;94348.16;5049280;28;20227;-76
2022/03/06 00:32:35;;;;;;;18.53;13.23;;;;;;;2.48;100.00;94345.41;5047891;28;20210;-77
2022/03/06 00:35:06;;;;;;;17.23;12.07;;;;;;;2.29;100.00;94339.03;5049133;28;20258;-77
2022/03/06 00:37:34;;;;;;;19.03;11.97;;;;;;;2.32;100.00;94343.00;5048118;28;20836;-76
2022/03/06 00:40:03;;;;;;;16.03;11.23;;;;;;;2.26;100.00;94343.72;5048872;28;20680;-75
2022/03/06 00:42:31;;;;;;;16.03;11.57;;;;;;;2.23;100.00;94328.69;5047877;28;20208;-76
2022/03/06 00:44:59;;;;;;;14.27;10.07;;;;;;;2.36;100.00;94328.09;5048445;28;20240;-75
2022/03/06 00:47:27;;;;;;;12.10;9.13;;;;;;;2.39;100.00;94333.66;5046748;28;20975;-81
2022/03/06 00:49:59;;;;;;;12.73;8.83;;;;;;;2.33;100.00;94331.00;5044113;28;20202;-79
2022/03/06 00:52:30;;;;;;;13.40;9.50;;;;;;;2.17;100.00;94316.56;5047214;28;20205;-80
2022/03/06 00:54:57;;;;;;;13.07;8.90;;;;;;;2.19;100.00;94317.97;5049827;28;20296;-81
2022/03/06 00:57:25;;;;;;;14.00;8.73;;;;;;;2.08;100.00;94302.22;5049809;28;20229;-79
2022/03/06 00:59:53;;;;;;;12.57;8.80;;;;;;;2.13;100.00;94321.25;5044220;28;20263;-81
2022/03/06 01:02:20;;;;;;;11.47;8.60;;;;;;;2.13;100.00;94321.25;5046078;28;20209;-79
2022/03/06 01:04:48;;;;;;;11.73;8.50;;;;;;;2.21;100.00;94315.25;5047938;28;20216;-79
2022/03/06 01:07:17;;;;;;;12.53;9.20;;;;;;;2.15;100.00;94310.81;5048786;28;20734;-78
2022/03/06 01:09:47;;;;;;;14.53;10.07;;;;;;;2.06;100.00;94315.22;5046508;28;20260;-79
2022/03/06 01:12:15;;;;;;;14.23;9.73;;;;;;;2.07;100.00;94301.47;5048845;28;20213;-79
2022/03/06 01:14:44;;;;;;;15.73;10.13;;;;;;;2.12;100.00;94303.50;5048736;28;20267;-78
2022/03/06 01:17:11;;;;;;;13.50;10.10;;;;;;;2.06;100.00;94297.28;5049553;28;20222;-79
2022/03/06 01:19:39;;;;;;;17.10;10.53;;;;;;;2.10;100.00;94306.25;5048773;28;20307;-79
2022/03/06 01:22:07;;;;;;;17.20;11.40;;;;;;;2.08;100.00;94315.84;5048378;28;20205;-79
2022/03/06 01:24:36;;;;;;;16.57;10.83;;;;;;;2.01;100.00;94314.16;5048140;28;20264;-78
2022/03/06 01:27:06;;;;;;;18.07;11.13;;;;;;;2.02;100.00;94308.09;5048641;28;20605;-78
2022/03/06 01:29:34;;;;;;;18.73;12.33;;;;;;;2.04;100.00;94306.13;5047854;28;20206;-78
2022/03/06 01:32:02;;;;;;;20.47;12.67;;;;;;;1.99;100.00;94305.88;5048744;28;20202;-78
2022/03/06 01:34:31;;;;;;;18.97;12.20;;;;;;;2.03;100.00;94299.41;5048079;28;20288;-79
2022/03/06 01:36:58;;;;;;;19.17;12.53;;;;;;;1.99;100.00;94303.31;5048256;28;20204;-79
2022/03/06 01:39:27;;;;;;;19.03;13.20;;;;;;;2.04;100.00;94301.00;5048587;28;20695;-79
2022/03/06 01:41:55;;;;;;;20.40;13.13;;;;;;;2.10;100.00;94293.44;5048992;28;20219;-79
2022/03/06 01:44:26;;;;;;;22.00;13.60;;;;;;;2.13;100.00;94294.84;5048556;28;20200;-79
2022/03/06 01:46:54;;;;;;;20.47;13.10;;;;;;;2.07;100.00;94291.22;5045292;28;20262;-81
2022/03/06 01:49:23;;;;;;;20.07;13.40;;;;;;;2.04;100.00;94290.75;5048320;28;20198;-81
2022/03/06 01:51:51;;;;;;;20.63;13.57;;;;;;;2.11;100.00;94289.06;5046643;28;20205;-81
2022/03/06 01:54:20;;;;;;;21.63;14.37;;;;;;;2.05;100.00;94280.31;5049447;28;20217;-81
2022/03/06 01:56:48;;;;;;;19.27;12.80;;;;;;;2.05;100.00;94259.06;5049090;28;20247;-81
2022/03/06 01:59:17;;;;;;;21.17;14.07;;;;;;;2.16;100.00;94279.91;5048812;28;20230;-82
2022/03/06 02:01:47;;;;;;;21.47;14.20;;;;;;;2.16;100.00;94279.13;5048606;28;20213;-81
2022/03/06 02:04:15;;;;;;;21.93;13.73;;;;;;;2.15;100.00;94267.25;5049167;28;20240;-82
2022/03/06 02:06:44;;;;;;;22.63;15.07;;;;;;;2.23;100.00;94269.72;5050613;28;20281;-81
2022/03/06 02:09:13;;;;;;;21.70;14.80;;;;;;;2.29;100.00;94269.03;5053717;28;20668;-82
2022/03/06 02:11:43;;;;;;;22.77;15.10;;;;;;;2.19;100.00;94271.84;5052133;28;20210;-77
2022/03/06 02:14:31;;;;;;;22.57;14.60;;;;;;;2.14;100.00;94258.78;5049782;28;20276;-77
2022/03/06 02:17:00;;;;;;;21.47;13.87;;;;;;;2.25;100.00;94265.25;5046935;28;20214;-77
2022/03/06 02:19:28;;;;;;;20.57;14.80;;;;;;;2.20;100.00;94268.31;5048999;28;20661;-77
2022/03/06 02:21:58;;;;;;;22.83;14.83;;;;;;;2.19;100.00;94271.84;5046260;28;20690;-76
2022/03/06 02:24:26;;;;;;;23.53;14.80;;;;;;;2.12;100.00;94270.97;5051047;28;20209;-76
2022/03/06 02:26:54;;;;;;;22.40;14.70;;;;;;;2.25;100.00;94280.63;5052051;28;20201;-76
2022/03/06 02:29:22;;;;;;;21.03;14.03;;;;;;;2.24;100.00;94264.44;5050653;28;20296;-78
2022/03/06 02:31:50;;;;;;;21.30;14.07;;;;;;;2.32;100.00;94273.81;5050394;28;20291;-77
2022/03/06 02:34:19;;;;;;;21.67;14.23;;;;;;;2.29;100.00;94267.25;5051394;28;20204;-78
2022/03/06 02:36:47;;;;;;;22.33;14.67;;;;;;;2.25;100.00;94276.28;5049317;28;20210;-79
2022/03/06 02:39:17;;;;;;;21.30;14.10;;;;;;;2.24;100.00;94273.91;5046217;28;20228;-79
2022/03/06 02:41:45;;;;;;;23.60;15.17;;;;;;;2.11;100.00;94271.13;5051514;28;20695;-80
2022/03/06 02:44:12;;;;;;;20.57;13.70;;;;;;;2.11;100.00;94269.38;5052529;28;20267;-78
2022/03/06 02:46:41;;;;;;;20.13;13.07;;;;;;;2.11;100.00;94271.94;5051407;28;20212;-78
2022/03/06 02:49:10;;;;;;;20.07;13.23;;;;;;;2.03;100.00;94268.66;5051815;28;20216;-79
2022/03/06 02:51:38;;;;;;;20.30;13.70;;;;;;;2.13;100.00;94271.78;5051626;28;20213;-78
2022/03/06 02:54:07;;;;;;;20.20;13.33;;;;;;;2.04;100.00;94260.81;5050815;28;20241;-80
2022/03/06 02:56:37;;;;;;;17.93;12.37;;;;;;;2.14;100.00;94263.91;5050772;28;20206;-78
2022/03/06 02:59:05;;;;;;;18.57;12.43;;;;;;;2.21;100.00;94274.25;5052360;28;20282;-79
2022/03/06 03:01:39;;;;;;;17.10;11.80;;;;;;;2.21;100.00;94267.34;5051572;28;20206;-79
2022/03/06 03:04:09;;;;;;;17.97;11.90;;;;;;;2.24;100.00;94272.13;5052145;28;20192;-79
2022/03/06 03:06:37;;;;;;;15.80;10.93;;;;;;;2.19;100.00;94274.41;5051638;28;20637;-79
2022/03/06 03:09:06;;;;;;;17.40;11.70;;;;;;;2.15;100.00;94280.88;5051954;28;20710;-78
2022/03/06 03:11:34;;;;;;;15.50;10.83;;;;;;;2.22;100.00;94274.06;5051655;28;20297;-80
2022/03/06 03:14:05;;;;;;;15.53;10.47;;;;;;;2.14;100.00;94278.47;5051792;28;20289;-81
2022/03/06 03:16:33;;;;;;;16.07;10.70;;;;;;;2.12;100.00;94276.09;5050879;28;20205;-81
2022/03/06 03:19:00;;;;;;;14.77;10.30;;;;;;;2.12;100.00;94281.22;5050935;28;20226;-81
2022/03/06 03:21:29;;;;;;;13.60;9.80;;;;;;;1.95;100.00;94273.88;5044095;28;20208;-80
2022/03/06 03:23:58;;;;;;;15.27;10.90;;;;;;;2.07;100.00;94286.09;5046718;28;20704;-81
2022/03/06 03:26:26;;;;;;;16.93;10.60;;;;;;;2.05;100.00;94288.00;5050651;28;20227;-80
2022/03/06 03:28:54;;;;;;;17.00;11.00;;;;;;;2.10;100.00;94288.31;5049232;28;20202;-80
2022/03/06 03:31:23;;;;;;;16.30;10.47;;;;;;;2.02;100.00;94293.47;5049627;28;20688;-80
2022/03/06 03:33:51;;;;;;;15.17;10.50;;;;;;;2.02;100.00;94285.03;5047971;28;20640;-81
2022/03/06 03:36:19;;;;;;;15.00;9.80;;;;;;;1.96;100.00;94289.09;5051334;28;20288;-80
2022/03/06 03:38:47;;;;;;;13.43;9.87;;;;;;;2.05;100.00;94290.56;5051646;28;20705;-79
2022/03/06 03:41:14;;;;;;;14.03;9.57;;;;;;;2.06;100.00;94283.69;5051478;28;20201;-79
2022/03/06 03:43:43;;;;;;;13.90;10.23;;;;;;;2.00;100.00;94281.81;5050792;28;20205;-79
2022/03/06 03:46:12;;;;;;;14.10;9.70;;;;;;;2.05;100.00;94298.25;5051182;28;20241;-80
2022/03/06 03:48:41;;;;;;;15.00;10.30;;;;;;;2.07;100.00;94282.72;5050623;28;20212;-79
2022/03/06 03:51:10;;;;;;;14.43;10.00;;;;;;;1.94;100.00;94293.56;5050846;28;20679;-80
2022/03/06 03:53:39;;;;;;;15.77;10.87;;;;;;;1.80;100.00;94281.53;5050075;28;20204;-78
2022/03/06 03:56:08;;;;;;;14.57;10.30;;;;;;;1.89;100.00;94292.50;5050083;28;20281;-77
2022/03/06 03:58:36;;;;;;;14.37;10.03;;;;;;;1.87;100.00;94289.31;5048410;28;20257;-78
2022/03/06 04:01:05;;;;;;;15.00;10.47;;;;;;;1.89;100.00;94295.06;5049516;28;20248;-77
2022/03/06 04:03:33;;;;;;;14.80;9.90;;;;;;;1.87;100.00;94294.44;5048667;28;20301;-78
2022/03/06 04:06:03;;;;;;;16.43;10.60;;;;;;;1.92;100.00;94287.03;5050339;28;20285;-78
2022/03/06 04:08:33;;;;;;;14.07;9.90;;;;;;;1.80;100.00;94291.78;5049384;28;20236;-78
2022/03/06 04:11:01;;;;;;;15.43;10.07;;;;;;;1.91;100.00;94293.91;5050077;28;20244;-77
2022/03/06 04:13:29;;;;;;;14.10;9.70;;;;;;;1.95;100.00;94295.16;5048559;28;20621;-78
2022/03/06 04:15:58;;;;;;;13.30;8.93;;;;;;;1.98;100.00;94301.69;5050066;28;20244;-79
2022/03/06 04:18:26;;;;;;;13.03;9.43;;;;;;;1.95;100.00;94299.50;5048990;28;20226;-78
2022/03/06 04:20:54;;;;;;;14.90;9.73;;;;;;;1.89;100.00;94298.41;5048761;28;20291;-78
2022/03/06 04:23:24;;;;;;;14.27;9.13;;;;;;;1.81;100.00;94297.69;5048816;28;20259;-77
2022/03/06 04:25:52;;;;;;;13.50;9.30;;;;;;;1.84;100.00;94298.16;5048676;28;20200;-77
2022/03/06 04:28:20;;;;;;;13.47;9.10;;;;;;;1.76;100.00;94284.63;5048222;28;20202;-78
2022/03/06 04:30:48;;;;;;;13.07;8.30;;;;;;;1.75;100.00;94304.31;5048378;28;20290;-77
2022/03/06 04:33:17;;;;;;;12.07;7.97;;;;;;;1.68;100.00;94296.50;5048591;28;20199;-77
2022/03/06 04:35:46;;;;;;;11.80;8.57;;;;;;;1.75;100.00;94300.94;5049213;28;20216;-77
2022/03/06 04:38:14;;;;;;;11.10;8.17;;;;;;;1.80;100.00;94307.13;5048610;28;20240;-77
2022/03/06 04:40:46;;;;;;;11.17;7.83;;;;;;;1.74;100.00;94302.69;5049028;28;20762;-77
2022/03/06 04:43:14;;;;;;;14.37;8.77;;;;;;;1.76;100.00;94300.75;5045688;28;20286;-78
2022/03/06 04:45:42;;;;;;;13.20;9.00;;;;;;;1.71;100.00;94303.03;5048716;28;20200;-81
2022/03/06 04:48:11;;;;;;;13.37;8.43;;;;;;;1.65;100.00;94303.75;5047226;28;20198;-81
2022/03/06 04:50:41;;;;;;;15.03;8.80;;;;;;;1.60;100.00;94291.47;5050052;28;20213;-81
2022/03/06 04:53:09;;;;;;;13.60;8.47;;;;;;;1.52;100.00;94291.53;5043534;28;20219;-80
2022/03/06 04:55:37;;;;;;;12.67;8.07;;;;;;;1.65;100.00;94301.97;5049503;28;20266;-79
2022/03/06 04:58:08;;;;;;;13.03;8.00;;;;;;;1.70;100.00;94294.56;5049926;28;20211;-80
2022/03/06 05:00:36;;;;;;;11.77;8.13;;;;;;;1.68;100.00;94293.94;5048807;28;20200;-80
2022/03/06 05:03:05;;;;;;;11.20;7.57;;;;;;;1.68;100.00;94293.94;5049341;28;20200;-79
2022/03/06 05:05:33;;;;;;;10.80;7.83;;;;;;;1.69;100.00;94298.13;5049079;28;20889;-79
2022/03/06 05:08:02;;;;;;;12.50;7.93;;;;;;;1.73;100.00;94293.44;5049205;28;20258;-79
2022/03/06 05:10:29;;;;;;;11.40;8.10;;;;;;;1.70;100.00;94291.22;5048220;28;20240;-79
2022/03/06 05:12:57;;;;;;;11.17;7.70;;;;;;;1.69;100.00;94300.69;5048792;28;20229;-79
2022/03/06 05:15:26;;;;;;;11.33;7.13;;;;;;;1.68;100.00;94293.16;5048644;28;20870;-79
2022/03/06 05:17:54;;;;;;;9.83;7.00;;;;;;;1.75;100.00;94299.19;5042241;28;20217;-79
2022/03/06 05:20:23;;;;;;;10.43;7.20;;;;;;;1.65;100.00;94290.94;5045842;28;20589;-79
2022/03/06 05:22:52;;;;;;;11.30;7.80;;;;;;;1.65;100.00;94301.19;5048335;28;20304;-80
2022/03/06 05:25:21;;;;;;;10.93;7.73;;;;;;;1.65;100.00;94296.84;5047430;28;20289;-80
2022/03/06 05:27:50;;;;;;;9.80;7.57;;;;;;;1.77;100.00;94293.88;5048654;28;20198;-78
2022/03/06 05:30:18;;;;;;;11.00;7.40;;;;;;;1.62;100.00;94301.53;5047178;28;20216;-79
2022/03/06 05:32:47;;;;;;;10.73;7.50;;;;;;;1.70;100.00;94304.03;5048067;28;20212;-81
2022/03/06 05:35:15;;;;;;;10.97;7.07;;;;;;;1.82;100.00;94317.22;5049388;28;20210;-81
2022/03/06 05:37:45;;;;;;;8.93;6.40;;;;;;;1.81;100.00;94316.44;5049040;28;20205;-79
2022/03/06 05:40:13;;;;;;;7.93;6.00;;;;;;;1.75;100.00;94317.13;5051083;28;20289;-80
2022/03/06 05:42:41;;;;;;;7.63;5.80;;;;;;;1.76;100.00;94321.25;5055700;28;20213;-80
2022/03/06 05:45:11;;;;;;;7.87;5.60;;;;;;;1.71;100.00;94314.09;5056132;28;20212;-80
2022/03/06 05:47:40;;;;;;;8.73;5.87;;;;;;;1.74;100.00;94315.50;5055972;28;20839;-81
2022/03/06 05:50:12;;;;;;;8.17;5.97;;;;;;;1.65;100.00;94308.84;5055461;28;20287;-81
2022/03/06 05:52:40;;;;;;;7.63;5.57;;;;;;;1.68;100.00;94308.50;5049807;28;20263;-81
2022/03/06 05:55:10;;;;;;;8.17;5.90;;;;;;;1.71;100.00;94311.53;5056227;28;20880;-80
2022/03/06 05:57:39;;;;;;;7.73;5.80;;;;;;;1.58;100.00;94313.88;5055522;28;20668;-81
2022/03/06 06:00:08;;;;;;;9.13;5.80;;;;;;;1.68;100.00;94311.06;5055473;28;20874;-78
2022/03/06 06:02:37;;;;;;;7.00;5.63;;;;;;;1.72;100.00;94317.47;5055110;28;20691;-81
2022/03/06 06:05:06;;;;;;;5.77;5.00;;;;;;;1.66;100.00;94318.94;5055735;28;20206;-78
2022/03/06 06:07:36;;;;;;;6.50;5.50;;;;;;;1.68;100.00;94323.88;5054715;28;20304;-71
2022/03/06 06:10:06;;;;;;;6.60;5.30;;;;;;;1.83;100.00;94324.72;5054569;28;20284;-71
2022/03/06 06:12:34;;;;;;;5.83;5.00;;;;;;;1.81;100.00;94326.66;5053320;28;20252;-73
2022/03/06 06:15:02;;;;;;;7.50;5.23;;;;;;;1.81;100.00;94329.22;5053919;28;20224;-72
2022/03/06 06:17:31;;;;;;;6.23;5.07;;;;;;;1.74;100.00;94343.69;5053186;28;20320;-72
2022/03/06 06:20:00;;;;;;;8.00;5.50;;;;;;;1.70;100.00;94337.31;5053871;28;20236;-71
2022/03/06 06:22:30;;;;;;;10.17;5.93;;;;;;;1.66;100.00;94331.75;5053415;28;20209;-73
2022/03/06 06:25:00;;;;;;;8.97;5.50;;;;;;;1.74;100.00;94330.88;5054245;28;20263;-71
2022/03/06 06:27:29;;;;;;;9.63;5.87;;;;;;;1.73;100.00;94318.25;5053139;28;20285;-72
2022/03/06 06:29:57;;;;;;;9.10;6.10;;;;;;;1.85;100.00;94330.47;5054123;28;20255;-72
2022/03/06 06:32:26;;;;;;;9.90;6.23;;;;;;;1.79;100.00;94330.38;5050605;28;20279;-72
2022/03/06 06:34:53;;;;;;;9.03;5.60;;;;;;;1.83;100.00;94332.41;5047656;28;20255;-72
2022/03/06 06:37:21;;;;;;;8.07;5.67;;;;;;;1.76;100.00;94328.16;5051167;28;20202;-72
2022/03/06 06:39:49;;;;;;;8.03;5.70;;;;;;;1.83;100.00;94334.97;5053604;28;20283;-73
2022/03/06 06:42:18;;;;;;;8.53;5.40;;;;;;;1.79;100.00;94330.38;5050716;28;20205;-71
2022/03/06 06:44:47;;;;;;;8.30;5.33;;;;;;;1.88;100.00;94340.38;5053087;28;20209;-72
2022/03/06 06:47:15;;;;;;;7.47;5.27;;;;;;;1.84;100.00;94338.34;5050230;28;20202;-71
2022/03/06 06:49:44;;;;;;;6.60;5.00;;;;;;;1.72;100.00;94350.75;5053060;28;20617;-72
2022/03/06 06:52:13;;;;;;;8.50;5.60;;;;;;;1.82;100.00;94346.16;5050027;28;20212;-72
2022/03/06 06:54:42;;;;;;;7.10;5.30;;;;;;;1.81;100.00;94344.59;5049132;28;20610;-71
2022/03/06 06:57:11;;;;;;;7.00;5.13;;;;;;;1.81;100.00;94354.03;5050401;28;20206;-71
2022/03/06 06:59:40;;;;;;;6.67;4.90;;;;;;;1.76;100.00;94354.53;5049790;28;20235;-71
2022/03/06 07:02:20;;;;;;;7.73;4.87;;;;;;;1.74;100.00;94348.81;5047469;28;20259;-71
2022/03/06 07:04:48;;;;;;;5.73;4.50;;;;;;;1.79;100.00;94349.06;5048842;28;20209;-71
2022/03/06 07:07:17;;;;;;;5.67;4.53;;;;;;;1.76;100.00;94341.72;5049841;28;20229;-71
2022/03/06 07:09:45;;;;;;;5.63;4.60;;;;;;;1.85;100.00;94345.06;5047959;28;20226;-72
2022/03/06 07:12:14;;;;;;;5.00;4.10;;;;;;;1.82;100.00;94343.59;5048873;28;20209;-75
2022/03/06 07:14:44;;;;;;;6.20;4.60;;;;;;;1.89;100.00;94348.84;5048780;28;20209;-73
2022/03/06 07:17:11;;;;;;;6.70;4.63;;;;;;;1.89;100.00;94341.97;5049428;28;20206;-75
2022/03/06 07:19:40;;;;;;;5.67;4.47;;;;;;;1.90;100.00;94346.13;5048853;28;20230;-71
2022/03/06 07:22:09;;;;;;;5.90;4.40;;;;;;;1.89;100.00;94333.47;5048830;28;20214;-71
2022/03/06 07:24:37;;;;;;;5.27;4.30;;;;;;;1.89;100.00;94341.97;5048397;28;20205;-72
2022/03/06 07:27:05;;;;;;;6.80;4.70;;;;;;;1.77;100.00;94339.97;5049079;28;20205;-72
2022/03/06 07:29:34;;;;;;;7.60;4.43;;;;;;;1.87;100.00;94343.13;5047779;28;20202;-71
2022/03/06 07:32:03;;;;;;;6.37;4.70;;;;;;;1.89;100.00;94349.66;5049323;28;20204;-70
2022/03/06 07:34:32;;;;;;;6.13;4.80;;;;;;;1.94;100.00;94355.03;5048432;28;20243;-72
2022/03/06 07:37:01;;;;;;;6.37;4.60;;;;;;;1.93;100.00;94350.09;5047319;28;20220;-71
2022/03/06 07:39:29;;;;;;;7.43;4.53;;;;;;;1.90;100.00;94351.25;5048676;28;20659;-70
2022/03/06 07:41:57;;;;;;;5.80;4.17;;;;;;;1.93;100.00;94352.66;5049238;28;20214;-70
2022/03/06 07:44:26;;;;;;;6.07;4.17;;;;;;;2.03;100.00;94354.00;5047797;28;20234;-73
2022/03/06 07:46:54;;;;;;;7.20;4.40;;;;;;;2.07;100.00;94352.72;5046509;28;20210;-71
2022/03/06 07:49:24;;;;;;;7.50;4.77;;;;;;;2.06;100.00;94371.59;5048476;28;20216;-72
2022/03/06 07:51:53;;;;;;;6.33;4.73;;;;;;;2.02;100.00;94367.00;5046859;28;20677;-72
2022/03/06 07:54:21;;;;;;;7.07;4.43;;;;;;;2.12;100.00;94373.47;5048146;28;20687;-77
2022/03/06 07:56:49;;;;;;;6.10;4.90;;;;;;;2.13;100.00;94364.84;5049214;28;20216;-75
2022/03/06 07:59:18;;;;;;;5.43;4.50;;;;;;;2.01;100.00;94362.84;5049599;28;20225;-82
2022/03/06 08:01:47;;;;;;;6.37;4.23;;;;;;;2.04;100.00;94352.25;5049241;28;20220;-82
2022/03/06 08:04:15;;;;;;;7.40;4.77;;;;;;;2.12;100.00;94360.66;5048843;28;20266;-83
2022/03/06 08:06:45;;;;;;;5.33;4.33;;;;;;;2.13;100.00;94352.03;5050367;28;20209;-79
2022/03/06 08:09:13;;;;;;;6.40;4.57;;;;;;;2.14;100.00;94363.03;5049582;28;20288;-80
2022/03/06 08:11:42;;;;;;;8.50;4.90;;;;;;;2.10;100.00;94372.88;5049004;28;20201;-83
2022/03/06 08:14:09;;;;;;;10.50;4.73;;;;;;;2.06;100.00;94356.22;5048754;28;20229;-84
2022/03/06 08:16:37;;;;;;;8.37;4.70;;;;;;;2.23;100.00;94373.06;5048339;28;20194;-83
2022/03/06 08:19:07;;;;;;;5.87;4.50;;;;;;;2.06;100.00;94381.06;5049635;28;20205;-84
2022/03/06 08:21:35;;;;;;;8.10;4.47;;;;;;;2.07;100.00;94380.91;5049616;28;20744;-83
2022/03/06 08:24:06;;;;;;;10.77;4.90;;;;;;;2.04;100.00;94370.19;5049497;28;20201;-84
2022/03/06 08:26:34;;;;;;;8.47;5.70;;;;;;;2.04;100.00;94372.75;5049801;28;20286;-83
2022/03/06 08:29:03;;;;;;;7.33;5.37;;;;;;;2.04;100.00;94370.19;5050823;28;20227;-82
2022/03/06 08:31:31;;;;;;;9.50;5.80;;;;;;;2.06;100.00;94374.16;5047808;28;20210;-80
2022/03/06 08:34:00;;;;;;;8.17;5.40;;;;;;;2.08;100.00;94361.97;5043782;28;20215;-80
2022/03/06 08:36:28;;;;;;;11.23;5.90;;;;;;;2.15;100.00;94364.66;5046631;28;20201;-80
2022/03/06 08:38:56;;;;;;;11.33;5.23;;;;;;;2.15;100.00;94359.53;5049326;28;20198;-81
2022/03/06 08:41:25;;;;;;;8.03;5.37;;;;;;;2.19;100.00;94356.41;5048718;28;20688;-80
2022/03/06 08:43:53;;;;;;;10.63;5.23;;;;;;;2.31;100.00;94359.34;5048290;28;20194;-80
2022/03/06 08:46:21;;;;;;;9.20;5.57;;;;;;;2.35;100.00;94347.78;5046998;28;20244;-79
2022/03/06 08:48:49;;;;;;;8.83;5.57;;;;;;;2.38;100.00;94354.34;5050202;28;20202;-79
2022/03/06 08:51:17;;;;;;;10.87;5.97;;;;;;;2.44;100.00;94349.31;5049964;28;20209;-81
2022/03/06 08:53:45;;;;;;;7.97;5.60;;;;;;;2.48;100.00;94342.84;5048770;28;20301;-80
2022/03/06 08:56:13;;;;;;;8.13;5.90;;;;;;;2.61;100.00;94362.75;5050235;28;20197;-80
2022/03/06 08:58:42;;;;;;;9.13;5.53;;;;;;;2.62;100.00;94359.22;5049189;28;20251;-80
2022/03/06 09:01:11;;;;;;;9.03;5.53;;;;;;;2.66;100.00;94357.88;5048225;28;20645;-79
2022/03/06 09:03:38;;;;;;;8.23;5.70;;;;;;;2.69;100.00;94360.09;5047505;28;20210;-82
2022/03/06 09:06:06;;;;;;;7.00;5.40;;;;;;;2.74;100.00;94360.38;5049304;28;20281;-84
2022/03/06 09:08:34;;;;;;;6.97;5.33;;;;;;;2.75;100.00;94352.50;5049241;28;20224;-84
2022/03/06 09:11:01;;;;;;;6.23;5.23;;;;;;;2.75;100.00;94347.38;5049132;28;20236;-85
2022/03/06 09:13:30;;;;;;;6.77;5.10;;;;;;;2.78;100.00;94348.78;5047313;28;20604;-84
2022/03/06 09:15:59;;;;;;;6.53;4.70;;;;;;;2.76;100.00;94353.28;5048773;28;20696;-82
2022/03/06 09:18:28;;;;;;;6.67;5.27;;;;;;;2.81;100.00;94372.31;5048640;28;20209;-84
2022/03/06 09:20:56;;;;;;;6.93;4.50;;;;;;;2.82;100.00;94370.53;5049046;28;20229;-83
2022/03/06 09:23:24;;;;;;;6.73;5.13;;;;;;;2.73;100.00;94359.56;5049270;28;20255;-85
2022/03/06 09:25:52;;;;;;;5.67;5.07;;;;;;;2.74;100.00;94368.84;5048430;28;20661;-75
2022/03/06 09:28:20;;;;;;;5.77;5.00;;;;;;;2.69;100.00;94354.97;5047778;28;20647;-77
2022/03/06 09:30:48;;;;;;;7.00;4.80;;;;;;;2.74;100.00;94368.84;5047828;28;20208;-78
2022/03/06 09:33:18;;;;;;;6.90;4.97;;;;;;;2.65;100.00;94376.81;5048462;28;20234;-78
2022/03/06 09:35:46;;;;;;;8.70;5.43;;;;;;;2.64;100.00;94368.34;5046537;28;20240;-79
2022/03/06 09:38:14;;;;;;;6.83;4.93;;;;;;;2.78;100.00;94370.09;5047707;28;20586;-78
2022/03/06 09:40:45;;;;;;;7.07;5.20;;;;;;;2.71;100.00;94368.44;5048043;28;20609;-77
2022/03/06 09:43:18;;;;;;;7.33;5.30;;;;;;;2.73;100.00;94363.91;5049387;28;20208;-83
2022/03/06 09:45:48;;;;;;;8.07;5.47;;;;;;;2.71;100.00;94373.56;5049082;28;21248;-75
2022/03/06 09:48:19;;;;;;;6.77;5.57;;;;;;;2.66;100.00;94360.44;5048812;28;20205;-80
2022/03/06 09:50:48;;;;;;;8.20;5.67;;;;;;;2.62;100.00;94374.63;5048282;28;20320;-80
2022/03/06 09:53:16;;;;;;;8.27;5.53;;;;;;;2.57;100.00;94369.22;5047937;28;20198;-79
2022/03/06 09:55:45;;;;;;;7.17;5.50;;;;;;;2.43;100.00;94360.53;5046002;28;20198;-80
2022/03/06 09:58:14;;;;;;;6.77;5.27;;;;;;;2.47;100.00;94355.84;5046316;28;20229;-79
2022/03/06 10:00:43;;;;;;;8.07;5.90;;;;;;;2.36;100.00;94366.53;5045359;28;20218;-79
2022/03/06 10:03:20;;;;;;;7.60;5.47;;;;;;;2.43;100.00;94372.53;5044034;28;20237;-79
2022/03/06 10:05:50;;;;;;;8.47;5.00;;;;;;;2.38;100.00;94373.09;5046489;28;20189;-77
2022/03/06 10:08:21;;;;;;;8.20;5.20;;;;;;;2.32;100.00;94360.97;5046731;28;20563;-79
2022/03/06 10:10:51;;;;;;;6.70;5.30;;;;;;;2.45;100.00;94373.19;5046825;28;20271;-78
2022/03/06 10:13:23;;;;;;;8.30;5.23;;;;;;;2.44;100.00;94371.59;5043038;28;20230;-80
2022/03/06 10:16:07;;;;;;;7.13;5.40;;;;;;;2.35;100.00;94373.44;5046885;28;20202;-80
2022/03/06 10:18:40;;;;;;;7.90;5.60;;;;;;;2.44;100.00;94382.63;5046467;28;20208;-80
2022/03/06 10:21:20;;;;;;;7.93;5.50;;;;;;;2.50;100.00;94384.50;5046887;28;20693;-80
2022/03/06 10:23:50;;;;;;;8.23;5.53;;;;;;;2.56;100.00;94383.81;5046519;28;20252;-78
2022/03/06 10:26:20;;;;;;;10.07;5.40;;;;;;;2.59;100.00;94392.91;5046317;28;20237;-80
2022/03/06 10:28:51;;;;;;;6.97;4.80;;;;;;;2.55;100.00;94394.22;5050801;28;20660;-80
2022/03/06 10:31:20;;;;;;;7.17;5.60;;;;;;;2.33;100.00;94384.84;5052618;28;20311;-79
2022/03/06 10:34:02;;;;;;;8.27;5.83;;;;;;;2.26;100.00;94384.72;5045839;28;20208;-82
2022/03/06 10:36:34;;;;;;;7.83;5.97;;;;;;;2.41;100.00;94377.84;5052814;28;20635;-82
2022/03/06 10:39:01;;;;;;;8.07;6.17;;;;;;;2.40;100.00;94372.88;5052520;28;20289;-82
2022/03/06 10:41:40;;;;;;;8.67;6.80;;;;;;;2.44;100.00;94376.72;5051966;28;20239;-81
2022/03/06 10:44:10;;;;;;;7.73;6.33;;;;;;;2.42;100.00;94378.66;5052045;28;20209;-80
2022/03/06 10:46:39;;;;;;;8.63;6.30;;;;;;;2.54;100.00;94367.00;5050196;28;20205;-80
2022/03/06 10:49:12;;;;;;;9.13;6.57;;;;;;;2.60;100.00;94364.50;5051570;28;20202;-80
2022/03/06 10:51:45;;;;;;;7.53;5.93;;;;;;;2.65;100.00;94382.75;5050410;28;20217;-80
2022/03/06 10:54:15;;;;;;;8.13;6.27;;;;;;;2.64;100.00;94382.91;5051594;28;20281;-81
2022/03/06 10:56:44;;;;;;;7.70;6.30;;;;;;;2.60;100.00;94367.06;5051804;28;20201;-80
2022/03/06 10:59:13;;;;;;;10.03;7.13;;;;;;;2.68;100.00;94376.47;5051462;28;20209;-81
2022/03/06 11:01:44;;;;;;;9.97;7.83;;;;;;;2.63;100.00;94376.19;5048704;28;20619;-81
2022/03/06 11:04:15;;;;;;;9.40;6.67;;;;;;;2.59;100.00;94375.75;5050199;28;20264;-80
2022/03/06 11:06:43;;;;;;;8.13;6.27;;;;;;;2.61;100.00;94384.06;5049708;28;20237;-81
2022/03/06 11:09:12;;;;;;;7.53;5.93;;;;;;;2.40;100.00;94375.47;5050500;28;20216;-80
2022/03/06 11:11:43;;;;;;;8.57;6.10;;;;;;;2.51;100.00;94380.19;5050015;28;20202;-79
2022/03/06 11:14:12;;;;;;;8.23;5.83;;;;;;;2.49;100.00;94380.34;5045957;28;20222;-79
2022/03/06 11:16:41;;;;;;;8.53;6.03;;;;;;;2.51;100.00;94378.38;5048619;28;20216;-82
2022/03/06 11:19:10;;;;;;;8.60;6.27;;;;;;;2.57;100.00;94382.81;5050519;28;20202;-75
2022/03/06 11:21:41;;;;;;;7.57;5.60;;;;;;;2.49;100.00;94379.53;5048807;28;20313;-81
2022/03/06 11:24:12;;;;;;;6.10;5.00;;;;;;;2.47;100.00;94386.63;5050295;28;20285;-80
2022/03/06 11:27:08;;;;;;;6.80;5.03;;;;;;;2.50;100.00;94381.94;5049724;28;20264;-80
2022/03/06 11:29:55;;;;;;;7.27;5.20;;;;;;;2.48;100.00;94377.97;5048790;28;20208;-81
2022/03/06 11:32:27;;;;;;;7.43;5.50;;;;;;;2.41;100.00;94384.75;5049398;28;20193;-80
2022/03/06 11:35:02;;;;;;;7.97;5.90;;;;;;;2.51;100.00;94380.19;5048595;28;20228;-81